Impacts TAF Board INFO
FOR SITUATIONAL AWARENESS. NOT TO BE USED FOR FLIGHT PLANNING PURPOSES.
IDs:

KDCA - Washington/National, VA, US

Issued at 1139 UTC 25 Feb 2018
Updated at 1319 UTC 25 Feb 2018
Potential Impact None Slight Moderate High
Time1252Z 25/14Z 25/15Z 25/16Z 25/17Z 25/18Z 25/19Z 25/20Z 25/21Z 25/22Z 25/23Z 26/00Z 26/01Z 26/02Z>>
Type OBS PRVL PRVL PRVL PRVL PRVL PRVL PRVL PRVL PRVL PRVL PRVL PRVL PRVL
VIS 1.5 1.5 2 2 2 >6 >6 >6 >6 >6 >6 >6 >6 >6
CIG 3 3 15 15 15 40 40 40 40 250 250 250 250 250
Cover OVC OVC OVC OVC OVC OVC OVC OVC OVC BKN BKN BKN BKN BKN
FltCat LIFR LIFR IFR IFR IFR VFR VFR VFR VFR VFR VFR VFR VFR VFR
WX -RA BR -SHRA -SHDZ BR -SHRA BR -SHRA BR -SHRA BR -- -- -- -- -- -- -- -- --
WDir 110 100 160 160 160 200 200 200 200 250 250 290 290 290
WSpd 3 5 8 8 8 11 11 11 11 8 8 7 7 7
WGst -- -- -- -- -- 19 19 19 19 -- -- -- -- --

Raw TAF
KDCA 251139Z 2512/2618 10005KT 1 1/2SM -SHRADZ BR OVC003
  FM251500 16008KT 2SM -SHRA BR BKN015 OVC025
  FM251800 20011G19KT P6SM SCT025 OVC040
  FM252200 25008KT P6SM SCT025 BKN250
  FM260000 29007KT P6SM SCT070 BKN250
  FM260800 34006KT P6SM BKN150


Raw METAR
KDCA 251252Z 11003KT 1 1/2SM R01/6000FT -RA BR OVC003 09/09 A2998 RMK AO2 RAE24B43 SLP153 P0000 T00890089
KDCA 251218Z 10004KT 1 3/4SM -RA BR OVC003 09/09 A2998 RMK AO2 P0000 T00890089
KDCA 251208Z 09004KT 2 1/2SM -RA BR OVC003 09/09 A2998 RMK AO2 P0000 T00890089
KDCA 251152Z 11004KT 1 1/4SM -RA BR OVC003 09/08 A2998 RMK AO2 RAB47 SLP150 P0000 60000 70017 T00890083 10094 20089 56021
KDCA 251130Z 11006KT 1 1/2SM BR OVC003 09/08 A2998 RMK AO2 T00890083
KDCA 251052Z 09004KT 2 1/2SM BR OVC004 09/08 A3000 RMK AO2 SLP157 T00890083
KDCA 251044Z 11003KT 2 1/2SM BR OVC004 09/08 A3001 RMK AO2 T00890083

METAR Board
Radar Display
Forecast Discussion

FOR SITUATIONAL AWARENESS. NOT TO BE USED FOR FLIGHT PLANNING PURPOSES.